ADDS METAR Data INFO
IDs: Format: Raw Decoded Include TAF

Data at: 2254 UTC 22 Jun 2018

KPHF 222217Z 08009KT 10SM SCT012 27/24 A2978 RMK AO2 T02720239
KPHF 222154Z 09009KT 10SM OVC011 27/24 A2978 RMK AO2 SLP083 T02720239
KPHF 222116Z 08010KT 10SM BKN012 27/24 A2979 RMK AO2 T02720239
KPHF 222102Z 11009KT 10SM SCT012 28/24 A2979 RMK AO2 T02780239
KPHF 222054Z 08011KT 10SM BKN011 28/24 A2980 RMK AO2 SLP089 60000 T02780239 58010
KPHF 222012Z 08012KT 10SM OVC008 27/23 A2979 RMK AO2 T02670233
KPHF 221954Z 10011KT 10SM OVC012 27/23 A2980 RMK AO2 SLP092 T02670233
KPHF 221925Z 11010KT 10SM BKN010 OVC019 27/24 A2981 RMK AO2 LTG DSNT SE T02720239
KPHF 221854Z 09009KT 10SM BKN009 BKN043 27/23 A2982 RMK AO2 RAB10E50 SLP098 P0000 T02670233
KPHF 221754Z 11013KT 10SM BKN009 27/24 A2983 RMK AO2 SLP099 60001 T02720239 10272 20239 58004
KPHF 221654Z 11010KT 10SM OVC014 27/24 A2984 RMK AO2 RAB26E48 SLP103 P0000 T02670244
KPHF 221601Z 11009KT 10SM OVC011 26/23 A2984 RMK AO2 T02560228
KPHF 221554Z 11012KT 10SM BKN009 OVC010 26/23 A2984 RMK AO2 SLP103 T02610233
KPHF 221508Z 12012KT 9SM BKN009 OVC010 26/23 A2984 RMK AO2 T02560228
KPHF 221454Z 12009KT 9SM BKN012 OVC017 25/23 A2984 RMK AO2 RAB1359E28 SLP103 P0000 60001 T02500228 51006
KPHF 221354Z 12010KT 8SM OVC012 25/23 A2984 RMK AO2 RAE17B40E50 SLP102 P0000 T02500228
KPHF 221254Z 12007KT 080V140 6SM -RA BR BKN012 OVC017 24/23 A2984 RMK AO2 RAB27 SLP102 P0001 T02440228
KPHF 221239Z 14006KT 6SM -RA BR BKN011 BKN021 OVC032 24/22 A2983 RMK AO2 RAB27 P0000 T02440222
KPHF 221217Z 12008KT 8SM FEW009 BKN015 OVC031 24/23 A2983 RMK AO2 T02440228
KPHF 221154Z 12008KT 5SM BR OVC008 24/23 A2982 RMK AO2 RAB24E41 CIG 006V012 SLP097 P0000 60030 70039 T02390228 10244 20239 53013
KPHF 221054Z 10009KT 5SM BR OVC005 24/23 A2980 RMK AO2 RAE18 SLP089 P0000 T02440228
KPHF 221047Z 11008KT 5SM BR OVC005 24/23 A2980 RMK AO2 RAE18 P0000 T02440228
KPHF 221039Z 11008KT 6SM BR SCT007 BKN011 OVC019 24/23 A2979 RMK AO2 RAE18 P0000 T02440233
KPHF 221032Z 11008KT 7SM BKN010 BKN017 OVC038 24/23 A2979 RMK AO2 RAE18 P0000 T02440233
KPHF 221019Z 10009KT 8SM SCT008 BKN017 BKN042 24/23 A2978 RMK AO2 RAE18 P0000 T02390228
KPHF 220954Z AUTO 11008KT 7SM -RA BKN110 24/23 A2978 RMK AO2 SLP083 P0005 T02390228
KPHF 220931Z AUTO 10007KT 9SM -RA FEW009 SCT090 BKN110 24/23 A2978 RMK AO2 P0005 T02390228
KPHF 220854Z AUTO 12010KT 4SM +RA BR FEW050 BKN100 OVC120 24/23 A2978 RMK AO2 LTG DSNT SE AND S SLP084 P0022 60025 T02390228 50001
KPHF 220847Z AUTO 12009KT 4SM RA BR SCT055 BKN100 OVC120 24/23 A2978 RMK AO2 LTG DSNT S P0020 T02390228
KPHF 220836Z AUTO 13008KT 2 1/2SM +RA BR BKN050 BKN070 OVC100 24/23 A2979 RMK AO2 LTG DSNT S P0016 T02440233
KPHF 220813Z AUTO 17004KT 4SM RA BR FEW006 BKN045 OVC050 24/23 A2980 RMK AO2 LTG DSNT SW P0004 T02440233
KPHF 220754Z AUTO 16004KT 4SM RA BR SCT006 BKN010 OVC015 24/23 A2979 RMK AO2 RAE27B38 CIG 008V013 SLP088 P0003 T02440233
KPHF 220742Z AUTO 13005KT 5SM -RA BR SCT006 BKN010 OVC015 24/23 A2979 RMK AO2 RAE27B38 P0000 T02440233
KPHF 220729Z AUTO 09006KT 6SM BR SCT008 BKN015 OVC110 24/23 A2978 RMK AO2 RAE27 P0000 T02440233
KPHF 220654Z AUTO 09007KT 6SM -RA BR FEW009 FEW120 24/23 A2978 RMK AO2 SLP083 P0000 T02440228
KPHF 220651Z AUTO 09007KT 6SM -RA BR FEW009 FEW120 24/23 A2978 RMK AO2 P0000
KPHF 220627Z AUTO 09008KT 6SM -RA BR FEW015 24/23 A2978 RMK AO2 P0000 T02440233
KPHF 220610Z AUTO 09007KT 7SM -RA BKN015 BKN045 BKN100 24/23 A2978 RMK AO2 P0000 T02440233
KPHF 220554Z AUTO 10009KT 6SM -RA BR SCT009 BKN014 OVC045 24/23 A2979 RMK AO2 RAE20B40 SLP088 P0000 60009 T02440233 10272 20244 56007
KPHF 220543Z AUTO 10007KT 6SM -RA BR SCT007 BKN036 OVC045 24/23 A2980 RMK AO2 RAE20B40 P0000 T02440233
KPHF 220514Z AUTO 09007KT 6SM -RA BR BKN006 OVC014 25/24 A2980 RMK AO2 CIG 005V009 P0000 T02500239
KPHF 220454Z AUTO 10008KT 6SM -RA BR SCT006 BKN012 OVC021 25/24 A2980 RMK AO2 RAE15B49 SLP090 P0000 T02500239 403220228
KPHF 220434Z AUTO 10007KT 6SM BR SCT006 BKN011 OVC041 25/24 A2981 RMK AO2 RAE15 P0000 T02500239
KPHF 220354Z AUTO 09009KT 5SM -RA BR BKN006 OVC011 25/24 A2980 RMK AO2 RAB14 SLP091 P0000 T02500239
KPHF 220254Z 08007KT 6SM BR BKN008 OVC022 25/24 A2981 RMK AO2 RAE40 SLP095 P0001 60009 T02500239 51010
KPHF 220232Z 08007KT 7SM -RA FEW008 BKN022 BKN042 25/24 A2981 RMK AO2 P0001 T02500239
KPHF 220154Z 08008KT 5SM RA BR FEW015 SCT075 BKN110 26/24 A2980 RMK AO2 LTG DSNT SW SLP089 P0008 T02560244
KPHF 220054Z 04004KT 10SM -RA FEW045 SCT070 BKN095 26/23 A2978 RMK AO2 LTG DSNT SW RAB40 SLP085 P0000 T02610228
KPHF 212354Z 06006KT 10SM CLR 27/23 A2977 RMK AO2 SLP081 T02670228 10322 20267 53011
KPHF 212254Z 07009KT 10SM CLR 28/23 A2976 RMK AO2 SLP076 T02780228
KPHF 212154Z 06006KT 10SM BKN100 29/23 A2973 RMK AO2 SLP067 T02890233
KPHF 212054Z VRB05KT 10SM CLR 31/24 A2974 RMK AO2 SLP069 T03110239 56007
KPHF 211954Z 09011KT 10SM FEW095 30/24 A2974 RMK AO2 SLP070 T03000239
KPHF 211854Z 02005KT 10SM SCT040 OVC090 31/22 A2975 RMK AO2 LTG DSNT SE SLP073 T03060222
KPHF 211754Z 34007KT 10SM SCT038 32/23 A2976 RMK AO2 SLP076 T03170228 10322 20256 58005
KPHF 211654Z 36009KT 10SM BKN032 OVC042 30/23 A2977 RMK AO2 SLP080 T03000228
KPHF 211554Z VRB06KT 10SM SCT030 31/23 A2977 RMK AO2 SLP080 T03110233
KPHF 211454Z 27008KT 10SM CLR 29/23 A2977 RMK AO2 SLP081 T02940233 53001
KPHF 211354Z 30003KT 10SM FEW014 28/23 A2977 RMK AO2 SLP080 T02780233
KPHF 211254Z 25006KT 10SM CLR 26/23 A2977 RMK AO2 SLP080 T02610228
KPHF 211154Z 24006KT 10SM CLR 26/23 A2977 RMK AO2 SLP080 70001 T02560228 10256 20228 51007